sensor_id;sensor_type;location;lat;lon;timestamp;P1;durP1;ratioP1;P2;durP2;ratioP2
43650;SDS011;29247;50.944;5.382;2022-08-21T00:01:09;4.00;;;2.67;;
43650;SDS011;29247;50.944;5.382;2022-08-21T00:03:40;6.35;;;2.78;;
43650;SDS011;29247;50.944;5.382;2022-08-21T00:06:06;3.75;;;2.70;;
43650;SDS011;29247;50.944;5.382;2022-08-21T00:08:35;4.50;;;2.90;;
43650;SDS011;29247;50.944;5.382;2022-08-21T00:11:03;4.90;;;2.53;;
43650;SDS011;29247;50.944;5.382;2022-08-21T00:13:32;4.82;;;2.83;;
43650;SDS011;29247;50.944;5.382;2022-08-21T00:16:01;7.25;;;2.60;;
43650;SDS011;29247;50.944;5.382;2022-08-21T00:18:28;3.47;;;2.67;;
43650;SDS011;29247;50.944;5.382;2022-08-21T00:20:54;2.63;;;2.42;;
43650;SDS011;29247;50.944;5.382;2022-08-21T00:23:19;3.92;;;2.50;;
43650;SDS011;29247;50.944;5.382;2022-08-21T00:25:45;3.45;;;2.85;;
43650;SDS011;29247;50.944;5.382;2022-08-21T00:28:13;4.78;;;3.08;;
43650;SDS011;29247;50.944;5.382;2022-08-21T00:30:42;5.22;;;2.80;;
43650;SDS011;29247;50.944;5.382;2022-08-21T00:33:10;4.28;;;2.63;;
43650;SDS011;29247;50.944;5.382;2022-08-21T00:35:38;6.15;;;2.63;;
43650;SDS011;29247;50.944;5.382;2022-08-21T00:38:07;5.50;;;3.20;;
43650;SDS011;29247;50.944;5.382;2022-08-21T00:40:41;6.72;;;2.92;;
43650;SDS011;29247;50.944;5.382;2022-08-21T00:43:13;5.70;;;3.20;;
43650;SDS011;29247;50.944;5.382;2022-08-21T00:45:43;5.00;;;3.05;;
43650;SDS011;29247;50.944;5.382;2022-08-21T00:48:09;3.03;;;2.75;;
43650;SDS011;29247;50.944;5.382;2022-08-21T00:50:39;3.28;;;2.97;;
43650;SDS011;29247;50.944;5.382;2022-08-21T00:53:10;3.33;;;2.30;;
43650;SDS011;29247;50.944;5.382;2022-08-21T00:55:37;5.40;;;2.58;;
43650;SDS011;29247;50.944;5.382;2022-08-21T00:58:06;5.15;;;2.45;;
43650;SDS011;29247;50.944;5.382;2022-08-21T01:00:40;2.72;;;2.45;;
43650;SDS011;29247;50.944;5.382;2022-08-21T01:03:10;3.95;;;3.08;;
43650;SDS011;29247;50.944;5.382;2022-08-21T01:08:32;4.15;;;2.95;;
43650;SDS011;29247;50.944;5.382;2022-08-21T01:10:59;8.05;;;2.13;;
43650;SDS011;29247;50.944;5.382;2022-08-21T01:13:29;3.60;;;2.20;;
43650;SDS011;29247;50.944;5.382;2022-08-21T01:15:58;4.18;;;2.55;;
43650;SDS011;29247;50.944;5.382;2022-08-21T01:18:28;4.72;;;2.83;;
43650;SDS011;29247;50.944;5.382;2022-08-21T01:23:30;4.40;;;2.45;;
43650;SDS011;29247;50.944;5.382;2022-08-21T01:25:56;5.03;;;2.08;;
43650;SDS011;29247;50.944;5.382;2022-08-21T01:28:27;4.90;;;2.20;;
43650;SDS011;29247;50.944;5.382;2022-08-21T01:30:55;3.40;;;2.35;;
43650;SDS011;29247;50.944;5.382;2022-08-21T01:33:22;6.70;;;2.65;;
43650;SDS011;29247;50.944;5.382;2022-08-21T01:35:49;3.17;;;2.33;;
43650;SDS011;29247;50.944;5.382;2022-08-21T01:38:16;5.35;;;1.90;;
43650;SDS011;29247;50.944;5.382;2022-08-21T01:40:42;3.97;;;2.13;;
43650;SDS011;29247;50.944;5.382;2022-08-21T01:43:10;4.07;;;1.83;;
43650;SDS011;29247;50.944;5.382;2022-08-21T01:45:38;3.67;;;2.20;;
43650;SDS011;29247;50.944;5.382;2022-08-21T01:48:06;6.90;;;2.00;;
43650;SDS011;29247;50.944;5.382;2022-08-21T01:50:35;6.63;;;2.05;;
43650;SDS011;29247;50.944;5.382;2022-08-21T01:53:01;3.92;;;2.00;;
43650;SDS011;29247;50.944;5.382;2022-08-21T01:55:27;3.67;;;2.10;;
43650;SDS011;29247;50.944;5.382;2022-08-21T01:57:52;3.53;;;2.25;;
43650;SDS011;29247;50.944;5.382;2022-08-21T02:00:19;4.18;;;2.05;;
43650;SDS011;29247;50.944;5.382;2022-08-21T02:02:47;3.38;;;2.20;;
43650;SDS011;29247;50.944;5.382;2022-08-21T02:05:16;3.75;;;1.88;;
43650;SDS011;29247;50.944;5.382;2022-08-21T02:07:46;3.90;;;2.30;;
43650;SDS011;29247;50.944;5.382;2022-08-21T02:10:17;3.70;;;2.03;;
43650;SDS011;29247;50.944;5.382;2022-08-21T02:12:46;2.63;;;1.75;;
43650;SDS011;29247;50.944;5.382;2022-08-21T02:18:01;4.15;;;2.03;;
43650;SDS011;29247;50.944;5.382;2022-08-21T02:20:32;2.28;;;1.63;;
43650;SDS011;29247;50.944;5.382;2022-08-21T02:23:04;4.57;;;2.20;;
43650;SDS011;29247;50.944;5.382;2022-08-21T02:25:31;3.85;;;1.85;;
43650;SDS011;29247;50.944;5.382;2022-08-21T02:27:58;4.35;;;1.88;;
43650;SDS011;29247;50.944;5.382;2022-08-21T02:30:34;4.70;;;1.75;;
43650;SDS011;29247;50.944;5.382;2022-08-21T02:33:03;3.63;;;1.83;;
43650;SDS011;29247;50.944;5.382;2022-08-21T02:35:31;2.15;;;1.60;;
43650;SDS011;29247;50.944;5.382;2022-08-21T02:37:58;3.67;;;1.75;;
43650;SDS011;29247;50.944;5.382;2022-08-21T02:40:27;2.13;;;1.52;;
43650;SDS011;29247;50.944;5.382;2022-08-21T02:42:56;4.72;;;2.05;;
43650;SDS011;29247;50.944;5.382;2022-08-21T02:45:25;4.32;;;2.28;;
43650;SDS011;29247;50.944;5.382;2022-08-21T02:47:55;5.70;;;2.20;;
43650;SDS011;29247;50.944;5.382;2022-08-21T02:50:23;3.85;;;1.90;;
43650;SDS011;29247;50.944;5.382;2022-08-21T02:52:52;2.40;;;1.85;;
43650;SDS011;29247;50.944;5.382;2022-08-21T02:55:24;3.10;;;1.77;;
43650;SDS011;29247;50.944;5.382;2022-08-21T02:57:52;2.90;;;2.00;;
43650;SDS011;29247;50.944;5.382;2022-08-21T03:00:22;4.50;;;1.77;;
43650;SDS011;29247;50.944;5.382;2022-08-21T03:05:21;4.43;;;1.88;;
43650;SDS011;29247;50.944;5.382;2022-08-21T03:07:47;5.35;;;2.22;;
43650;SDS011;29247;50.944;5.382;2022-08-21T03:10:13;3.90;;;1.63;;
43650;SDS011;29247;50.944;5.382;2022-08-21T03:12:42;3.40;;;2.03;;
43650;SDS011;29247;50.944;5.382;2022-08-21T03:15:12;5.45;;;2.00;;
43650;SDS011;29247;50.944;5.382;2022-08-21T03:17:39;4.00;;;2.08;;
43650;SDS011;29247;50.944;5.382;2022-08-21T03:20:05;4.72;;;2.03;;
43650;SDS011;29247;50.944;5.382;2022-08-21T03:22:32;4.30;;;1.75;;
43650;SDS011;29247;50.944;5.382;2022-08-21T03:24:59;3.67;;;2.60;;
43650;SDS011;29247;50.944;5.382;2022-08-21T03:27:28;6.20;;;2.03;;
43650;SDS011;29247;50.944;5.382;2022-08-21T03:29:55;6.43;;;2.28;;
43650;SDS011;29247;50.944;5.382;2022-08-21T03:32:21;3.72;;;1.70;;
43650;SDS011;29247;50.944;5.382;2022-08-21T03:34:50;3.97;;;1.70;;
43650;SDS011;29247;50.944;5.382;2022-08-21T03:37:18;5.93;;;2.00;;
43650;SDS011;29247;50.944;5.382;2022-08-21T03:39:46;3.88;;;1.90;;
43650;SDS011;29247;50.944;5.382;2022-08-21T03:42:11;2.15;;;1.90;;
43650;SDS011;29247;50.944;5.382;2022-08-21T03:44:39;3.08;;;1.52;;
43650;SDS011;29247;50.944;5.382;2022-08-21T03:47:07;4.00;;;2.17;;
43650;SDS011;29247;50.944;5.382;2022-08-21T03:49:34;4.78;;;2.25;;
43650;SDS011;29247;50.944;5.382;2022-08-21T03:52:03;3.13;;;1.88;;
43650;SDS011;29247;50.944;5.382;2022-08-21T03:54:29;3.05;;;1.70;;
43650;SDS011;29247;50.944;5.382;2022-08-21T03:56:57;2.25;;;1.67;;
43650;SDS011;29247;50.944;5.382;2022-08-21T03:59:23;3.20;;;2.13;;
43650;SDS011;29247;50.944;5.382;2022-08-21T04:02:07;3.25;;;1.55;;
43650;SDS011;29247;50.944;5.382;2022-08-21T04:04:33;2.63;;;1.88;;
43650;SDS011;29247;50.944;5.382;2022-08-21T04:06:59;2.97;;;1.80;;
43650;SDS011;29247;50.944;5.382;2022-08-21T04:09:28;5.47;;;2.20;;
43650;SDS011;29247;50.944;5.382;2022-08-21T04:11:54;3.30;;;1.60;;
43650;SDS011;29247;50.944;5.382;2022-08-21T04:14:21;3.05;;;1.98;;
43650;SDS011;29247;50.944;5.382;2022-08-21T04:16:47;2.50;;;1.83;;
43650;SDS011;29247;50.944;5.382;2022-08-21T04:19:15;2.50;;;1.73;;
43650;SDS011;29247;50.944;5.382;2022-08-21T04:21:41;2.70;;;1.80;;
43650;SDS011;29247;50.944;5.382;2022-08-21T04:24:08;3.40;;;1.67;;
43650;SDS011;29247;50.944;5.382;2022-08-21T04:26:35;3.20;;;2.08;;
43650;SDS011;29247;50.944;5.382;2022-08-21T04:29:02;2.97;;;1.65;;
43650;SDS011;29247;50.944;5.382;2022-08-21T04:31:31;2.03;;;1.60;;
43650;SDS011;29247;50.944;5.382;2022-08-21T04:34:01;2.83;;;1.90;;
43650;SDS011;29247;50.944;5.382;2022-08-21T04:36:31;3.35;;;1.98;;
43650;SDS011;29247;50.944;5.382;2022-08-21T04:39:01;4.88;;;1.75;;
43650;SDS011;29247;50.944;5.382;2022-08-21T04:41:29;4.03;;;1.60;;
43650;SDS011;29247;50.944;5.382;2022-08-21T04:43:55;3.15;;;2.15;;
43650;SDS011;29247;50.944;5.382;2022-08-21T04:46:21;4.72;;;2.00;;
43650;SDS011;29247;50.944;5.382;2022-08-21T04:48:47;5.13;;;1.90;;
43650;SDS011;29247;50.944;5.382;2022-08-21T04:57:02;2.83;;;1.70;;
43650;SDS011;29247;50.944;5.382;2022-08-21T04:59:36;3.10;;;1.50;;
43650;SDS011;29247;50.944;5.382;2022-08-21T05:02:06;3.17;;;1.80;;
43650;SDS011;29247;50.944;5.382;2022-08-21T05:04:36;5.15;;;2.10;;
43650;SDS011;29247;50.944;5.382;2022-08-21T05:07:10;3.03;;;1.73;;
43650;SDS011;29247;50.944;5.382;2022-08-21T05:09:42;2.63;;;1.67;;
43650;SDS011;29247;50.944;5.382;2022-08-21T05:12:10;3.53;;;1.90;;
43650;SDS011;29247;50.944;5.382;2022-08-21T05:14:39;4.32;;;2.10;;
43650;SDS011;29247;50.944;5.382;2022-08-21T05:17:06;1.63;;;1.50;;
43650;SDS011;29247;50.944;5.382;2022-08-21T05:19:32;4.13;;;1.85;;
43650;SDS011;29247;50.944;5.382;2022-08-21T05:22:00;6.60;;;1.98;;
43650;SDS011;29247;50.944;5.382;2022-08-21T05:24:26;2.83;;;1.70;;
43650;SDS011;29247;50.944;5.382;2022-08-21T05:26:55;4.22;;;1.90;;
43650;SDS011;29247;50.944;5.382;2022-08-21T05:29:21;3.55;;;3.03;;
43650;SDS011;29247;50.944;5.382;2022-08-21T05:31:47;5.03;;;1.80;;
43650;SDS011;29247;50.944;5.382;2022-08-21T05:34:14;2.05;;;1.42;;
43650;SDS011;29247;50.944;5.382;2022-08-21T05:36:43;3.30;;;1.75;;
43650;SDS011;29247;50.944;5.382;2022-08-21T05:39:14;4.20;;;1.50;;
43650;SDS011;29247;50.944;5.382;2022-08-21T05:41:42;5.85;;;1.80;;
43650;SDS011;29247;50.944;5.382;2022-08-21T05:44:10;3.92;;;1.85;;
43650;SDS011;29247;50.944;5.382;2022-08-21T05:46:36;4.28;;;2.00;;
43650;SDS011;29247;50.944;5.382;2022-08-21T05:49:02;4.40;;;2.28;;
43650;SDS011;29247;50.944;5.382;2022-08-21T05:51:30;8.25;;;2.00;;
43650;SDS011;29247;50.944;5.382;2022-08-21T05:53:56;3.95;;;1.67;;
43650;SDS011;29247;50.944;5.382;2022-08-21T05:56:24;7.13;;;1.58;;
43650;SDS011;29247;50.944;5.382;2022-08-21T05:58:50;4.30;;;1.77;;
43650;SDS011;29247;50.944;5.382;2022-08-21T06:01:16;5.82;;;1.70;;
43650;SDS011;29247;50.944;5.382;2022-08-21T06:03:41;6.97;;;1.92;;
43650;SDS011;29247;50.944;5.382;2022-08-21T06:06:08;3.25;;;1.83;;
43650;SDS011;29247;50.944;5.382;2022-08-21T06:08:34;3.83;;;1.60;;
43650;SDS011;29247;50.944;5.382;2022-08-21T06:11:03;2.95;;;1.90;;
43650;SDS011;29247;50.944;5.382;2022-08-21T06:13:30;4.00;;;1.48;;
43650;SDS011;29247;50.944;5.382;2022-08-21T06:16:07;4.80;;;1.52;;
43650;SDS011;29247;50.944;5.382;2022-08-21T06:18:37;4.28;;;1.42;;
43650;SDS011;29247;50.944;5.382;2022-08-21T06:21:03;6.53;;;1.63;;
43650;SDS011;29247;50.944;5.382;2022-08-21T06:23:30;6.18;;;1.30;;
43650;SDS011;29247;50.944;5.382;2022-08-21T06:25:59;4.65;;;1.50;;
43650;SDS011;29247;50.944;5.382;2022-08-21T06:28:29;5.63;;;1.88;;
43650;SDS011;29247;50.944;5.382;2022-08-21T06:30:55;4.20;;;1.25;;
43650;SDS011;29247;50.944;5.382;2022-08-21T06:33:21;3.10;;;1.30;;
43650;SDS011;29247;50.944;5.382;2022-08-21T06:35:47;5.38;;;1.50;;
43650;SDS011;29247;50.944;5.382;2022-08-21T06:38:13;3.50;;;1.33;;
43650;SDS011;29247;50.944;5.382;2022-08-21T06:40:39;3.97;;;1.50;;
43650;SDS011;29247;50.944;5.382;2022-08-21T06:43:13;5.53;;;1.40;;
43650;SDS011;29247;50.944;5.382;2022-08-21T06:45:40;5.65;;;1.40;;
43650;SDS011;29247;50.944;5.382;2022-08-21T06:48:07;4.18;;;1.20;;
43650;SDS011;29247;50.944;5.382;2022-08-21T06:50:38;4.03;;;1.33;;
43650;SDS011;29247;50.944;5.382;2022-08-21T06:53:08;2.78;;;1.63;;
43650;SDS011;29247;50.944;5.382;2022-08-21T06:55:36;8.20;;;1.85;;
43650;SDS011;29247;50.944;5.382;2022-08-21T06:58:03;4.20;;;1.20;;
43650;SDS011;29247;50.944;5.382;2022-08-21T07:00:29;3.00;;;1.25;;
43650;SDS011;29247;50.944;5.382;2022-08-21T07:02:55;8.93;;;1.50;;
43650;SDS011;29247;50.944;5.382;2022-08-21T07:05:22;4.03;;;1.55;;
43650;SDS011;29247;50.944;5.382;2022-08-21T07:07:51;3.47;;;1.45;;
43650;SDS011;29247;50.944;5.382;2022-08-21T07:10:16;3.00;;;1.48;;
43650;SDS011;29247;50.944;5.382;2022-08-21T07:12:42;6.65;;;1.35;;
43650;SDS011;29247;50.944;5.382;2022-08-21T07:15:08;6.55;;;1.35;;
43650;SDS011;29247;50.944;5.382;2022-08-21T07:17:36;1.52;;;1.17;;
43650;SDS011;29247;50.944;5.382;2022-08-21T07:20:05;8.27;;;3.42;;
43650;SDS011;29247;50.944;5.382;2022-08-21T07:22:35;4.18;;;1.35;;
43650;SDS011;29247;50.944;5.382;2022-08-21T07:25:03;4.95;;;1.30;;
43650;SDS011;29247;50.944;5.382;2022-08-21T07:27:32;5.32;;;1.35;;
43650;SDS011;29247;50.944;5.382;2022-08-21T07:30:00;4.50;;;1.65;;
43650;SDS011;29247;50.944;5.382;2022-08-21T07:32:26;5.93;;;1.40;;
43650;SDS011;29247;50.944;5.382;2022-08-21T07:34:54;5.70;;;1.25;;
43650;SDS011;29247;50.944;5.382;2022-08-21T07:37:20;4.70;;;1.05;;
43650;SDS011;29247;50.944;5.382;2022-08-21T07:39:45;7.75;;;1.40;;
43650;SDS011;29247;50.944;5.382;2022-08-21T07:42:16;8.35;;;1.45;;
43650;SDS011;29247;50.944;5.382;2022-08-21T07:44:45;4.35;;;1.02;;
43650;SDS011;29247;50.944;5.382;2022-08-21T07:47:13;2.67;;;1.00;;
43650;SDS011;29247;50.944;5.382;2022-08-21T07:49:44;6.13;;;1.35;;
43650;SDS011;29247;50.944;5.382;2022-08-21T07:52:11;5.88;;;1.27;;
43650;SDS011;29247;50.944;5.382;2022-08-21T07:54:39;4.88;;;1.10;;
43650;SDS011;29247;50.944;5.382;2022-08-21T07:57:05;3.47;;;0.98;;
43650;SDS011;29247;50.944;5.382;2022-08-21T07:59:30;6.22;;;1.27;;
43650;SDS011;29247;50.944;5.382;2022-08-21T08:01:59;6.03;;;0.93;;
43650;SDS011;29247;50.944;5.382;2022-08-21T08:04:25;6.25;;;1.52;;
43650;SDS011;29247;50.944;5.382;2022-08-21T08:06:51;4.72;;;1.10;;
43650;SDS011;29247;50.944;5.382;2022-08-21T08:09:18;1.90;;;1.00;;
43650;SDS011;29247;50.944;5.382;2022-08-21T08:11:45;5.60;;;0.85;;
43650;SDS011;29247;50.944;5.382;2022-08-21T08:14:13;3.75;;;0.90;;
43650;SDS011;29247;50.944;5.382;2022-08-21T08:16:42;4.63;;;1.10;;
43650;SDS011;29247;50.944;5.382;2022-08-21T08:19:10;4.20;;;1.02;;
43650;SDS011;29247;50.944;5.382;2022-08-21T08:21:35;4.97;;;1.80;;
43650;SDS011;29247;50.944;5.382;2022-08-21T08:24:03;4.78;;;1.17;;
43650;SDS011;29247;50.944;5.382;2022-08-21T08:26:31;5.63;;;1.23;;
43650;SDS011;29247;50.944;5.382;2022-08-21T08:28:57;3.72;;;0.90;;
43650;SDS011;29247;50.944;5.382;2022-08-21T08:31:25;5.13;;;1.23;;
43650;SDS011;29247;50.944;5.382;2022-08-21T08:33:51;3.92;;;1.00;;
43650;SDS011;29247;50.944;5.382;2022-08-21T08:36:16;4.97;;;1.10;;
43650;SDS011;29247;50.944;5.382;2022-08-21T08:38:52;2.30;;;1.05;;
43650;SDS011;29247;50.944;5.382;2022-08-21T08:41:22;5.60;;;1.40;;
43650;SDS011;29247;50.944;5.382;2022-08-21T08:43:54;4.40;;;0.95;;
43650;SDS011;29247;50.944;5.382;2022-08-21T08:49:22;3.78;;;0.90;;
43650;SDS011;29247;50.944;5.382;2022-08-21T08:52:01;5.20;;;0.80;;
43650;SDS011;29247;50.944;5.382;2022-08-21T08:54:43;2.22;;;0.90;;
43650;SDS011;29247;50.944;5.382;2022-08-21T08:57:19;3.42;;;0.82;;
43650;SDS011;29247;50.944;5.382;2022-08-21T08:59:50;2.70;;;1.02;;
43650;SDS011;29247;50.944;5.382;2022-08-21T09:02:18;3.75;;;0.93;;
43650;SDS011;29247;50.944;5.382;2022-08-21T09:04:51;2.35;;;1.25;;
43650;SDS011;29247;50.944;5.382;2022-08-21T09:10:30;3.83;;;1.10;;
43650;SDS011;29247;50.944;5.382;2022-08-21T09:21:28;4.18;;;1.10;;
43650;SDS011;29247;50.944;5.382;2022-08-21T09:29:15;3.65;;;1.42;;
43650;SDS011;29247;50.944;5.382;2022-08-21T09:31:45;3.42;;;1.27;;
43650;SDS011;29247;50.944;5.382;2022-08-21T09:34:11;2.88;;;0.80;;
43650;SDS011;29247;50.944;5.382;2022-08-21T09:36:45;4.80;;;0.90;;
43650;SDS011;29247;50.944;5.382;2022-08-21T09:39:22;1.85;;;0.90;;
43650;SDS011;29247;50.944;5.382;2022-08-21T09:41:59;2.90;;;0.95;;
43650;SDS011;29247;50.944;5.382;2022-08-21T09:44:30;3.40;;;1.00;;
43650;SDS011;29247;50.944;5.382;2022-08-21T09:46:58;3.47;;;1.02;;
43650;SDS011;29247;50.944;5.382;2022-08-21T09:49:28;3.70;;;1.05;;
43650;SDS011;29247;50.944;5.382;2022-08-21T09:52:01;1.50;;;0.80;;
43650;SDS011;29247;50.944;5.382;2022-08-21T09:54:32;2.97;;;0.70;;
43650;SDS011;29247;50.944;5.382;2022-08-21T09:59:55;1.52;;;0.80;;
43650;SDS011;29247;50.944;5.382;2022-08-21T10:02:49;5.10;;;1.00;;
43650;SDS011;29247;50.944;5.382;2022-08-21T10:05:16;4.15;;;0.80;;
43650;SDS011;29247;50.944;5.382;2022-08-21T10:07:48;2.85;;;1.00;;
43650;SDS011;29247;50.944;5.382;2022-08-21T10:10:18;2.80;;;0.80;;
43650;SDS011;29247;50.944;5.382;2022-08-21T10:12:58;3.40;;;0.80;;
43650;SDS011;29247;50.944;5.382;2022-08-21T10:21:42;2.90;;;0.90;;
43650;SDS011;29247;50.944;5.382;2022-08-21T10:24:25;3.90;;;1.23;;
43650;SDS011;29247;50.944;5.382;2022-08-21T10:30:03;5.38;;;0.88;;
43650;SDS011;29247;50.944;5.382;2022-08-21T10:32:46;3.15;;;1.00;;
43650;SDS011;29247;50.944;5.382;2022-08-21T10:35:37;2.47;;;1.00;;
43650;SDS011;29247;50.944;5.382;2022-08-21T10:49:21;4.07;;;0.80;;
43650;SDS011;29247;50.944;5.382;2022-08-21T10:54:50;5.32;;;0.90;;
43650;SDS011;29247;50.944;5.382;2022-08-21T10:57:42;3.92;;;0.80;;
43650;SDS011;29247;50.944;5.382;2022-08-21T11:00:17;6.88;;;1.15;;
43650;SDS011;29247;50.944;5.382;2022-08-21T11:02:58;2.83;;;1.10;;
43650;SDS011;29247;50.944;5.382;2022-08-21T11:05:31;4.35;;;1.10;;
43650;SDS011;29247;50.944;5.382;2022-08-21T11:08:14;2.85;;;1.00;;
43650;SDS011;29247;50.944;5.382;2022-08-21T11:11:02;4.05;;;0.90;;
43650;SDS011;29247;50.944;5.382;2022-08-21T11:16:40;5.28;;;0.93;;
43650;SDS011;29247;50.944;5.382;2022-08-21T11:19:24;3.53;;;0.90;;
43650;SDS011;29247;50.944;5.382;2022-08-21T11:22:10;2.88;;;0.90;;
43650;SDS011;29247;50.944;5.382;2022-08-21T11:25:05;3.15;;;0.93;;
43650;SDS011;29247;50.944;5.382;2022-08-21T11:30:02;4.28;;;0.93;;
43650;SDS011;29247;50.944;5.382;2022-08-21T11:35:57;2.20;;;0.77;;
43650;SDS011;29247;50.944;5.382;2022-08-21T11:38:40;5.15;;;1.10;;
43650;SDS011;29247;50.944;5.382;2022-08-21T11:43:51;5.00;;;1.23;;
43650;SDS011;29247;50.944;5.382;2022-08-21T11:46:36;3.25;;;1.25;;
43650;SDS011;29247;50.944;5.382;2022-08-21T11:53:03;3.50;;;1.08;;
43650;SDS011;29247;50.944;5.382;2022-08-21T11:55:16;1.88;;;1.00;;
43650;SDS011;29247;50.944;5.382;2022-08-21T11:58:09;2.70;;;0.95;;
43650;SDS011;29247;50.944;5.382;2022-08-21T12:00:44;4.65;;;1.10;;
43650;SDS011;29247;50.944;5.382;2022-08-21T12:03:41;2.85;;;0.80;;
43650;SDS011;29247;50.944;5.382;2022-08-21T12:06:16;4.63;;;2.10;;
43650;SDS011;29247;50.944;5.382;2022-08-21T12:08:59;5.97;;;1.08;;
43650;SDS011;29247;50.944;5.382;2022-08-21T12:11:26;2.50;;;0.95;;
43650;SDS011;29247;50.944;5.382;2022-08-21T12:14:00;4.20;;;1.30;;
43650;SDS011;29247;50.944;5.382;2022-08-21T12:19:06;4.25;;;0.85;;
43650;SDS011;29247;50.944;5.382;2022-08-21T12:21:47;7.05;;;1.08;;
43650;SDS011;29247;50.944;5.382;2022-08-21T12:25:02;6.10;;;1.20;;
43650;SDS011;29247;50.944;5.382;2022-08-21T12:27:29;2.90;;;1.00;;
43650;SDS011;29247;50.944;5.382;2022-08-21T12:30:21;6.07;;;1.10;;
43650;SDS011;29247;50.944;5.382;2022-08-21T12:33:03;3.78;;;0.93;;
43650;SDS011;29247;50.944;5.382;2022-08-21T12:35:42;2.78;;;0.88;;
43650;SDS011;29247;50.944;5.382;2022-08-21T12:38:16;4.68;;;1.13;;
43650;SDS011;29247;50.944;5.382;2022-08-21T12:40:55;2.53;;;1.10;;
43650;SDS011;29247;50.944;5.382;2022-08-21T12:43:34;3.88;;;0.80;;
43650;SDS011;29247;50.944;5.382;2022-08-21T12:46:00;2.85;;;0.82;;
43650;SDS011;29247;50.944;5.382;2022-08-21T12:48:44;6.63;;;1.23;;
43650;SDS011;29247;50.944;5.382;2022-08-21T12:51:17;4.40;;;1.10;;
43650;SDS011;29247;50.944;5.382;2022-08-21T12:53:58;3.05;;;1.20;;
43650;SDS011;29247;50.944;5.382;2022-08-21T12:56:26;2.90;;;1.00;;
43650;SDS011;29247;50.944;5.382;2022-08-21T12:58:59;6.18;;;1.00;;
43650;SDS011;29247;50.944;5.382;2022-08-21T13:01:29;7.18;;;1.10;;
43650;SDS011;29247;50.944;5.382;2022-08-21T13:03:57;5.47;;;1.00;;
43650;SDS011;29247;50.944;5.382;2022-08-21T13:06:29;3.53;;;1.40;;
43650;SDS011;29247;50.944;5.382;2022-08-21T13:09:08;4.15;;;1.20;;
43650;SDS011;29247;50.944;5.382;2022-08-21T13:11:37;4.40;;;1.10;;
43650;SDS011;29247;50.944;5.382;2022-08-21T13:14:08;6.32;;;1.10;;
43650;SDS011;29247;50.944;5.382;2022-08-21T13:16:54;7.88;;;1.52;;
43650;SDS011;29247;50.944;5.382;2022-08-21T13:19:21;4.70;;;1.10;;
43650;SDS011;29247;50.944;5.382;2022-08-21T13:21:50;6.53;;;2.20;;
43650;SDS011;29247;50.944;5.382;2022-08-21T13:24:25;2.92;;;0.90;;
43650;SDS011;29247;50.944;5.382;2022-08-21T13:26:51;6.78;;;1.55;;
43650;SDS011;29247;50.944;5.382;2022-08-21T13:29:26;14.05;;;2.42;;
43650;SDS011;29247;50.944;5.382;2022-08-21T13:31:57;5.88;;;1.20;;
43650;SDS011;29247;50.944;5.382;2022-08-21T13:34:29;4.82;;;1.20;;
43650;SDS011;29247;50.944;5.382;2022-08-21T13:37:02;2.65;;;0.93;;
43650;SDS011;29247;50.944;5.382;2022-08-21T13:39:37;3.95;;;0.75;;
43650;SDS011;29247;50.944;5.382;2022-08-21T13:42:10;3.47;;;1.23;;
43650;SDS011;29247;50.944;5.382;2022-08-21T13:44:42;10.98;;;1.30;;
43650;SDS011;29247;50.944;5.382;2022-08-21T13:47:10;4.00;;;1.10;;
43650;SDS011;29247;50.944;5.382;2022-08-21T13:49:42;2.80;;;1.00;;
43650;SDS011;29247;50.944;5.382;2022-08-21T13:52:24;4.28;;;1.15;;
43650;SDS011;29247;50.944;5.382;2022-08-21T13:55:00;3.05;;;1.08;;
43650;SDS011;29247;50.944;5.382;2022-08-21T13:57:39;3.15;;;1.00;;
43650;SDS011;29247;50.944;5.382;2022-08-21T14:00:25;2.85;;;0.90;;
43650;SDS011;29247;50.944;5.382;2022-08-21T14:02:59;5.60;;;1.10;;
43650;SDS011;29247;50.944;5.382;2022-08-21T14:05:32;6.60;;;1.10;;
43650;SDS011;29247;50.944;5.382;2022-08-21T14:08:10;3.15;;;0.90;;
43650;SDS011;29247;50.944;5.382;2022-08-21T14:10:42;3.38;;;1.40;;
43650;SDS011;29247;50.944;5.382;2022-08-21T14:13:21;4.80;;;0.98;;
43650;SDS011;29247;50.944;5.382;2022-08-21T14:16:02;2.65;;;1.13;;
43650;SDS011;29247;50.944;5.382;2022-08-21T14:18:43;2.45;;;0.80;;
43650;SDS011;29247;50.944;5.382;2022-08-21T14:21:13;4.50;;;0.85;;
43650;SDS011;29247;50.944;5.382;2022-08-21T14:24:05;4.32;;;1.10;;
43650;SDS011;29247;50.944;5.382;2022-08-21T14:29:01;3.88;;;0.98;;
43650;SDS011;29247;50.944;5.382;2022-08-21T14:31:32;3.70;;;1.10;;
43650;SDS011;29247;50.944;5.382;2022-08-21T14:33:59;2.47;;;1.10;;
43650;SDS011;29247;50.944;5.382;2022-08-21T14:36:28;3.92;;;1.75;;
43650;SDS011;29247;50.944;5.382;2022-08-21T14:38:59;4.20;;;1.10;;
43650;SDS011;29247;50.944;5.382;2022-08-21T14:41:25;4.35;;;0.98;;
43650;SDS011;29247;50.944;5.382;2022-08-21T14:43:52;7.75;;;1.33;;
43650;SDS011;29247;50.944;5.382;2022-08-21T14:46:25;2.40;;;0.90;;
43650;SDS011;29247;50.944;5.382;2022-08-21T14:48:55;2.88;;;0.95;;
43650;SDS011;29247;50.944;5.382;2022-08-21T14:51:26;4.35;;;1.10;;
43650;SDS011;29247;50.944;5.382;2022-08-21T14:53:56;3.05;;;0.82;;
43650;SDS011;29247;50.944;5.382;2022-08-21T14:56:25;6.85;;;1.20;;
43650;SDS011;29247;50.944;5.382;2022-08-21T14:58:51;3.65;;;0.90;;
43650;SDS011;29247;50.944;5.382;2022-08-21T15:01:21;6.65;;;1.23;;
43650;SDS011;29247;50.944;5.382;2022-08-21T15:03:49;3.38;;;1.02;;
43650;SDS011;29247;50.944;5.382;2022-08-21T15:06:18;3.40;;;1.02;;
43650;SDS011;29247;50.944;5.382;2022-08-21T15:08:45;4.68;;;1.02;;
43650;SDS011;29247;50.944;5.382;2022-08-21T15:11:19;5.07;;;1.17;;
43650;SDS011;29247;50.944;5.382;2022-08-21T15:13:50;4.72;;;1.20;;
43650;SDS011;29247;50.944;5.382;2022-08-21T15:16:21;5.45;;;0.98;;
43650;SDS011;29247;50.944;5.382;2022-08-21T15:18:49;8.98;;;1.00;;
43650;SDS011;29247;50.944;5.382;2022-08-21T15:21:19;3.55;;;1.40;;
43650;SDS011;29247;50.944;5.382;2022-08-21T15:23:45;5.00;;;1.13;;
43650;SDS011;29247;50.944;5.382;2022-08-21T15:26:15;5.22;;;1.17;;
43650;SDS011;29247;50.944;5.382;2022-08-21T15:28:44;4.95;;;1.00;;
43650;SDS011;29247;50.944;5.382;2022-08-21T15:31:09;2.15;;;1.15;;
43650;SDS011;29247;50.944;5.382;2022-08-21T15:33:35;1.92;;;0.93;;
43650;SDS011;29247;50.944;5.382;2022-08-21T15:36:01;2.20;;;1.05;;
43650;SDS011;29247;50.944;5.382;2022-08-21T15:38:27;3.67;;;1.00;;
43650;SDS011;29247;50.944;5.382;2022-08-21T15:40:52;4.05;;;1.08;;
43650;SDS011;29247;50.944;5.382;2022-08-21T15:45:52;4.35;;;1.05;;
43650;SDS011;29247;50.944;5.382;2022-08-21T15:48:17;3.53;;;1.17;;
43650;SDS011;29247;50.944;5.382;2022-08-21T15:50:46;2.80;;;0.90;;
43650;SDS011;29247;50.944;5.382;2022-08-21T15:53:14;4.40;;;0.93;;
43650;SDS011;29247;50.944;5.382;2022-08-21T15:55:40;6.75;;;1.25;;
43650;SDS011;29247;50.944;5.382;2022-08-21T15:58:07;4.13;;;1.08;;
43650;SDS011;29247;50.944;5.382;2022-08-21T16:00:41;7.25;;;1.17;;
43650;SDS011;29247;50.944;5.382;2022-08-21T16:03:12;2.80;;;1.10;;
43650;SDS011;29247;50.944;5.382;2022-08-21T16:05:41;5.90;;;0.98;;
43650;SDS011;29247;50.944;5.382;2022-08-21T16:08:18;3.47;;;1.10;;
43650;SDS011;29247;50.944;5.382;2022-08-21T16:10:44;5.28;;;1.20;;
43650;SDS011;29247;50.944;5.382;2022-08-21T16:13:16;5.22;;;1.00;;
43650;SDS011;29247;50.944;5.382;2022-08-21T16:15:47;2.40;;;0.82;;
43650;SDS011;29247;50.944;5.382;2022-08-21T16:18:14;2.63;;;0.90;;
43650;SDS011;29247;50.944;5.382;2022-08-21T16:20:42;4.45;;;1.30;;
43650;SDS011;29247;50.944;5.382;2022-08-21T16:23:12;3.38;;;1.23;;
43650;SDS011;29247;50.944;5.382;2022-08-21T16:25:40;3.85;;;1.15;;
43650;SDS011;29247;50.944;5.382;2022-08-21T16:28:10;3.30;;;1.10;;
43650;SDS011;29247;50.944;5.382;2022-08-21T16:30:39;4.45;;;1.30;;
43650;SDS011;29247;50.944;5.382;2022-08-21T16:33:08;3.10;;;0.93;;